Time;durP1;ratioP1;P1;durP2;ratioP2;P2;SDS_P1;SDS_P2;PMS_P1;PMS_P2;Temp;Humidity;BMP_temperature;BMP_pressure;BME280_temperature;BME280_humidity;BME280_pressure;Samples;Min_cycle;Max_cycle;Signal;HPM_P1;HPM_P2
2022/09/11 00:00:36;;;;;;;7.15;1.95;;;;;;;;;;5050433;28;20053;-71
2022/09/11 00:03:06;;;;;;;3.20;1.70;;;;;;;;;;5052198;28;20504;-70
2022/09/11 00:05:39;;;;;;;3.45;1.98;;;;;;;;;;5051927;28;20053;-73
2022/09/11 00:08:11;;;;;;;4.07;1.92;;;;;;;;;;5051453;28;20049;-69
2022/09/11 00:10:43;;;;;;;3.25;2.13;;;;;;;;;;5051365;28;20068;-73
2022/09/11 00:13:18;;;;;;;2.22;1.67;;;;;;;;;;5051487;28;20056;-70
2022/09/11 00:15:50;;;;;;;5.85;1.52;;;;;;;;;;5051524;28;20053;-70
2022/09/11 00:18:21;;;;;;;3.08;1.60;;;;;;;;;;5051409;28;20526;-70
2022/09/11 00:20:55;;;;;;;6.30;1.70;;;;;;;;;;5051474;28;20044;-70
2022/09/11 00:23:26;;;;;;;8.45;1.90;;;;;;;;;;5051601;28;20040;-72
2022/09/11 00:26:02;;;;;;;6.05;1.50;;;;;;;;;;5051445;28;20045;-71
2022/09/11 00:28:33;;;;;;;2.10;1.48;;;;;;;;;;5051142;28;20044;-70
2022/09/11 00:31:07;;;;;;;2.67;1.13;;;;;;;;;;5051049;28;20052;-71
2022/09/11 00:33:37;;;;;;;1.67;1.02;;;;;;;;;;5050129;28;20503;-71
2022/09/11 00:36:21;;;;;;;4.25;1.10;;;;;;;;;;5049960;28;20511;-71
2022/09/11 00:38:51;;;;;;;10.80;3.50;;;;;;;;;;5050949;28;20044;-70
2022/09/11 00:41:25;;;;;;;5.95;2.78;;;;;;;;;;5050988;28;20048;-70
2022/09/11 00:44:06;;;;;;;4.05;3.20;;;;;;;;;;5049113;28;20053;-70
2022/09/11 00:46:41;;;;;;;4.88;2.03;;;;;;;;;;5050930;28;20045;-71
2022/09/11 00:49:26;;;;;;;3.45;2.13;;;;;;;;;;5050863;28;20045;-70
2022/09/11 00:52:09;;;;;;;2.53;1.20;;;;;;;;;;5050350;28;20053;-69
2022/09/11 00:54:47;;;;;;;1.73;1.10;;;;;;;;;;5050760;28;20071;-71
2022/09/11 00:57:21;;;;;;;1.30;0.90;;;;;;;;;;5050699;28;20052;-70
2022/09/11 00:59:54;;;;;;;3.60;1.02;;;;;;;;;;5050544;28;20072;-73
2022/09/11 01:02:26;;;;;;;2.22;0.88;;;;;;;;;;5049858;28;20049;-70
2022/09/11 01:04:57;;;;;;;2.47;1.20;;;;;;;;;;5050752;28;20056;-72
2022/09/11 01:07:29;;;;;;;2.55;1.00;;;;;;;;;;5050853;28;20045;-72
2022/09/11 01:09:59;;;;;;;1.90;1.10;;;;;;;;;;5049078;28;20056;-71
2022/09/11 01:12:41;;;;;;;;;;;;;;;;;;5049993;28;20060;-71
2022/09/11 01:15:29;;;;;;;3.35;1.20;;;;;;;;;;5040193;28;19927;-72
2022/09/11 01:18:14;;;;;;;1.23;1.10;;;;;;;;;;5039923;28;20072;-72
2022/09/11 01:20:53;;;;;;;4.97;1.10;;;;;;;;;;5039400;28;20045;-70
2022/09/11 01:23:33;;;;;;;1.70;0.85;;;;;;;;;;5046091;28;20060;-70
2022/09/11 01:26:15;;;;;;;5.88;1.08;;;;;;;;;;5048259;28;20416;-71
2022/09/11 01:28:56;;;;;;;;;;;;;;;;;;5050942;28;20041;-71
2022/09/11 01:31:32;;;;;;;1.30;0.88;;;;;;;;;;5048927;28;19932;-71
2022/09/11 01:34:41;;;;;;;2.22;1.10;;;;;;;;;;5048943;28;20045;-70
2022/09/11 01:37:30;;;;;;;1.60;0.95;;;;;;;;;;5048797;28;20056;-70
2022/09/11 01:40:15;;;;;;;2.17;1.10;;;;;;;;;;5048768;28;20056;-71
2022/09/11 01:42:48;;;;;;;1.00;0.75;;;;;;;;;;5049919;28;20053;-70
2022/09/11 01:45:22;;;;;;;0.75;0.65;;;;;;;;;;5048146;28;20052;-71
2022/09/11 01:47:54;;;;;;;3.67;1.00;;;;;;;;;;5049608;28;20049;-70
2022/09/11 01:50:25;;;;;;;2.92;0.88;;;;;;;;;;5050001;28;20045;-70
2022/09/11 01:52:59;;;;;;;10.40;1.10;;;;;;;;;;5049603;28;20056;-74
2022/09/11 01:55:36;;;;;;;2.47;1.15;;;;;;;;;;5048705;28;20411;-73
2022/09/11 01:58:14;;;;;;;3.30;1.45;;;;;;;;;;5048708;28;20053;-71
2022/09/11 02:00:48;;;;;;;2.47;1.27;;;;;;;;;;5047573;28;20052;-70
2022/09/11 02:03:27;;;;;;;1.65;0.90;;;;;;;;;;5048645;28;20523;-70
2022/09/11 02:06:14;;;;;;;1.17;0.85;;;;;;;;;;5047749;28;20057;-71
2022/09/11 02:08:55;;;;;;;3.22;1.08;;;;;;;;;;5048921;28;20045;-71
2022/09/11 02:11:33;;;;;;;3.28;1.10;;;;;;;;;;5049561;28;20056;-70
2022/09/11 02:14:09;;;;;;;6.78;1.50;;;;;;;;;;5046461;28;20049;-71
2022/09/11 02:16:52;;;;;;;1.23;1.00;;;;;;;;;;5048150;28;20052;-71
2022/09/11 02:19:29;;;;;;;2.78;0.90;;;;;;;;;;5048068;28;20057;-70
2022/09/11 02:22:00;;;;;;;4.65;1.00;;;;;;;;;;5048015;28;20052;-69
2022/09/11 02:24:29;;;;;;;8.20;0.88;;;;;;;;;;5049387;28;20049;-70
2022/09/11 02:27:05;;;;;;;3.90;0.98;;;;;;;;;;5049082;28;20044;-70
2022/09/11 02:29:38;;;;;;;2.28;1.08;;;;;;;;;;5047325;28;20049;-70
2022/09/11 02:32:11;;;;;;;3.92;1.33;;;;;;;;;;5048547;28;20056;-71
2022/09/11 02:34:45;;;;;;;3.10;1.70;;;;;;;;;;5048258;28;20064;-71
2022/09/11 02:37:41;;;;;;;3.40;1.33;;;;;;;;;;5048214;28;20048;-70
2022/09/11 02:40:20;;;;;;;5.60;1.77;;;;;;;;;;5048743;28;20052;-69
2022/09/11 02:43:16;;;;;;;2.45;1.30;;;;;;;;;;5048197;28;20068;-74
2022/09/11 02:45:55;;;;;;;2.42;1.42;;;;;;;;;;5047267;28;20052;-70
2022/09/11 02:49:05;;;;;;;2.67;1.60;;;;;;;;;;5047708;28;20056;-70
2022/09/11 02:51:39;;;;;;;1.90;1.40;;;;;;;;;;5029765;28;20477;-69
2022/09/11 02:54:17;;;;;;;1.75;1.33;;;;;;;;;;5045275;28;20055;-70
2022/09/11 02:57:18;;;;;;;4.47;1.70;;;;;;;;;;5047630;28;20053;-69
2022/09/11 03:00:00;;;;;;;2.78;1.33;;;;;;;;;;5053152;28;20059;-70
2022/09/11 03:02:36;;;;;;;2.15;1.30;;;;;;;;;;5051007;28;20049;-71
2022/09/11 03:05:07;;;;;;;2.88;1.80;;;;;;;;;;5053074;28;20051;-71
2022/09/11 03:07:40;;;;;;;2.13;1.40;;;;;;;;;;5050657;28;20053;-71
2022/09/11 03:10:10;;;;;;;1.52;1.20;;;;;;;;;;5052883;28;20045;-71
2022/09/11 03:12:40;;;;;;;2.63;1.60;;;;;;;;;;5051772;28;20064;-69
2022/09/11 03:15:11;;;;;;;3.38;1.25;;;;;;;;;;5051302;28;20056;-70
2022/09/11 03:17:42;;;;;;;5.95;1.35;;;;;;;;;;5050941;28;20063;-70
2022/09/11 03:20:15;;;;;;;2.85;1.58;;;;;;;;;;5051402;28;20487;-72
2022/09/11 03:22:46;;;;;;;2.25;1.40;;;;;;;;;;5050813;28;20388;-70
2022/09/11 03:25:17;;;;;;;4.93;1.30;;;;;;;;;;5050660;28;20420;-69
2022/09/11 03:27:48;;;;;;;2.13;1.48;;;;;;;;;;5051035;28;20487;-71
2022/09/11 03:30:18;;;;;;;2.55;1.50;;;;;;;;;;5050837;28;21149;-70
2022/09/11 03:32:49;;;;;;;4.95;1.50;;;;;;;;;;5052611;28;20057;-70
2022/09/11 03:35:19;;;;;;;5.00;1.67;;;;;;;;;;5052372;28;20049;-69
2022/09/11 03:37:50;;;;;;;1.77;1.48;;;;;;;;;;5051377;28;20083;-70
2022/09/11 03:40:19;;;;;;;;;;;;;;;;;;5052276;28;20065;-70
2022/09/11 03:42:48;;;;;;;1.70;1.20;;;;;;;;;;5050854;28;19977;-70
2022/09/11 03:45:20;;;;;;;2.35;1.70;;;;;;;;;;5050345;28;20040;-70
2022/09/11 03:47:50;;;;;;;1.98;1.38;;;;;;;;;;5051091;28;20076;-70
2022/09/11 03:50:21;;;;;;;3.58;1.65;;;;;;;;;;5050039;28;20057;-69
2022/09/11 03:52:50;;;;;;;;;;;;;;;;;;5051228;28;20053;-69
2022/09/11 03:55:22;;;;;;;3.22;1.20;;;;;;;;;;5050827;28;19924;-69
2022/09/11 03:57:52;;;;;;;2.45;1.42;;;;;;;;;;5050010;28;20060;-70
2022/09/11 04:00:23;;;;;;;3.50;1.77;;;;;;;;;;5050952;28;20057;-71
2022/09/11 04:02:56;;;;;;;7.45;1.70;;;;;;;;;;5050730;28;20407;-69
2022/09/11 04:05:37;;;;;;;3.95;2.20;;;;;;;;;;5050571;28;20052;-70
2022/09/11 04:08:07;;;;;;;4.75;1.50;;;;;;;;;;5051111;28;20048;-69
2022/09/11 04:10:37;;;;;;;;;;;;;;;;;;5050620;28;20045;-70
2022/09/11 04:13:09;;;;;;;3.38;1.30;;;;;;;;;;5050694;28;20035;-69
2022/09/11 04:15:39;;;;;;;4.05;1.73;;;;;;;;;;5051809;28;20052;-69
2022/09/11 04:18:09;;;;;;;2.65;1.70;;;;;;;;;;5050061;28;20045;-69
2022/09/11 04:20:39;;;;;;;3.33;1.70;;;;;;;;;;5050004;28;20148;-70
2022/09/11 04:23:09;;;;;;;3.65;1.58;;;;;;;;;;5051914;28;20064;-70
2022/09/11 04:25:40;;;;;;;1.85;1.20;;;;;;;;;;5049553;28;20048;-69
2022/09/11 04:28:11;;;;;;;1.73;1.05;;;;;;;;;;5049801;28;20515;-71
2022/09/11 04:30:41;;;;;;;2.63;1.48;;;;;;;;;;5051879;28;20048;-69
2022/09/11 04:33:11;;;;;;;2.15;1.10;;;;;;;;;;5049337;28;20493;-71
2022/09/11 04:35:42;;;;;;;2.90;1.35;;;;;;;;;;5049271;28;20049;-70
2022/09/11 04:38:12;;;;;;;2.13;1.30;;;;;;;;;;5049830;28;20056;-74
2022/09/11 04:40:42;;;;;;;3.15;1.42;;;;;;;;;;5050021;28;20052;-70
2022/09/11 04:43:15;;;;;;;3.53;1.52;;;;;;;;;;5049301;28;20064;-70
2022/09/11 04:45:45;;;;;;;4.00;1.55;;;;;;;;;;5049449;28;20049;-69
2022/09/11 04:48:15;;;;;;;3.53;1.15;;;;;;;;;;5049098;28;20063;-70
2022/09/11 04:50:47;;;;;;;2.47;1.42;;;;;;;;;;5049913;28;20052;-70
2022/09/11 04:53:23;;;;;;;2.05;1.20;;;;;;;;;;5049838;28;20531;-70
2022/09/11 04:55:59;;;;;;;;;;;;;;;;;;5034036;28;20052;-70
2022/09/11 04:58:38;;;;;;;1.02;0.77;;;;;;;;;;5049518;28;20307;-71
2022/09/11 05:01:12;;;;;;;1.75;1.13;;;;;;;;;;5049652;28;20419;-70
2022/09/11 05:03:46;;;;;;;2.28;1.17;;;;;;;;;;5049508;28;20060;-69
2022/09/11 05:06:16;;;;;;;2.65;1.08;;;;;;;;;;5049386;28;20440;-71
2022/09/11 05:08:49;;;;;;;0.70;0.70;;;;;;;;;;5048719;28;20049;-69
2022/09/11 05:11:19;;;;;;;2.58;1.20;;;;;;;;;;5050532;28;20060;-70
2022/09/11 05:13:49;;;;;;;1.52;1.00;;;;;;;;;;5050609;28;20424;-70
2022/09/11 05:16:20;;;;;;;4.70;1.10;;;;;;;;;;5048899;28;20056;-69
2022/09/11 05:18:51;;;;;;;3.67;1.23;;;;;;;;;;5048631;28;20048;-71
2022/09/11 05:21:24;;;;;;;2.53;1.13;;;;;;;;;;5048678;28;20056;-71
2022/09/11 05:23:58;;;;;;;2.42;1.30;;;;;;;;;;5050404;28;20522;-70
2022/09/11 05:26:31;;;;;;;3.08;1.00;;;;;;;;;;5049297;28;20057;-70
2022/09/11 05:29:06;;;;;;;3.03;1.23;;;;;;;;;;5049053;28;20068;-71
2022/09/11 05:31:42;;;;;;;2.38;0.90;;;;;;;;;;5049988;28;20056;-69
2022/09/11 05:34:15;;;;;;;1.77;1.02;;;;;;;;;;5048797;28;20055;-71
2022/09/11 05:36:45;;;;;;;2.65;1.20;;;;;;;;;;5049084;28;20053;-68
2022/09/11 05:39:17;;;;;;;2.10;1.00;;;;;;;;;;5048853;28;20053;-70
2022/09/11 05:41:51;;;;;;;2.45;0.85;;;;;;;;;;5048761;28;20053;-70
2022/09/11 05:44:22;;;;;;;4.35;1.38;;;;;;;;;;5049313;28;20515;-69
2022/09/11 05:46:53;;;;;;;2.08;0.93;;;;;;;;;;5049295;28;20053;-70
2022/09/11 05:49:24;;;;;;;1.15;0.85;;;;;;;;;;5048488;28;20060;-69
2022/09/11 05:51:54;;;;;;;1.45;0.95;;;;;;;;;;5049774;28;20056;-69
2022/09/11 05:54:25;;;;;;;9.07;1.52;;;;;;;;;;5047398;28;20507;-70
2022/09/11 05:57:01;;;;;;;2.25;0.93;;;;;;;;;;5048575;28;20083;-70
2022/09/11 05:59:38;;;;;;;4.45;1.20;;;;;;;;;;5047856;28;20048;-70
2022/09/11 06:02:10;;;;;;;2.35;1.27;;;;;;;;;;5048312;28;20049;-69
2022/09/11 06:04:49;;;;;;;2.85;1.30;;;;;;;;;;5048690;28;20045;-70
2022/09/11 06:07:21;;;;;;;2.72;1.05;;;;;;;;;;5048738;28;20516;-69
2022/09/11 06:09:51;;;;;;;2.78;1.02;;;;;;;;;;5047914;28;20052;-68
2022/09/11 06:12:21;;;;;;;1.70;1.20;;;;;;;;;;5049569;28;20056;-70
2022/09/11 06:14:51;;;;;;;1.85;0.85;;;;;;;;;;5047701;28;20053;-69
2022/09/11 06:17:22;;;;;;;1.52;0.90;;;;;;;;;;5047857;28;20061;-70
2022/09/11 06:19:53;;;;;;;2.80;1.10;;;;;;;;;;5048458;28;20498;-69
2022/09/11 06:22:24;;;;;;;1.45;1.10;;;;;;;;;;5049759;28;20045;-68
2022/09/11 06:24:54;;;;;;;2.80;1.00;;;;;;;;;;5048524;28;20380;-69
2022/09/11 06:27:24;;;;;;;2.40;0.95;;;;;;;;;;5047872;28;20491;-69
2022/09/11 06:29:54;;;;;;;1.73;1.02;;;;;;;;;;5048267;28;20053;-69
2022/09/11 06:32:23;;;;;;;;;;;;;;;;;;5049447;28;20056;-69
2022/09/11 06:34:53;;;;;;;1.65;0.90;;;;;;;;;;5047954;28;19931;-69
2022/09/11 06:37:23;;;;;;;2.03;1.05;;;;;;;;;;5048382;28;20530;-70
2022/09/11 06:39:53;;;;;;;3.40;1.38;;;;;;;;;;5048918;28;20045;-68
2022/09/11 06:42:27;;;;;;;3.28;1.08;;;;;;;;;;5047920;28;20508;-70
2022/09/11 06:45:01;;;;;;;1.20;0.90;;;;;;;;;;5047824;28;20049;-69
2022/09/11 06:47:31;;;;;;;2.38;1.25;;;;;;;;;;5047967;28;20055;-70
2022/09/11 06:50:01;;;;;;;2.20;1.30;;;;;;;;;;5047253;28;20049;-70
2022/09/11 06:52:43;;;;;;;1.50;1.08;;;;;;;;;;5048049;28;20056;-70
2022/09/11 06:55:22;;;;;;;3.78;1.45;;;;;;;;;;5047672;28;20733;-70
2022/09/11 06:58:07;;;;;;;2.20;1.00;;;;;;;;;;5048075;28;20492;-69
2022/09/11 07:00:37;;;;;;;2.25;1.20;;;;;;;;;;5047915;28;20053;-69
2022/09/11 07:03:08;;;;;;;1.83;0.90;;;;;;;;;;5047473;28;20053;-68
2022/09/11 07:05:46;;;;;;;1.95;1.20;;;;;;;;;;5048110;28;20072;-69
2022/09/11 07:08:16;;;;;;;2.17;1.20;;;;;;;;;;5047829;28;20041;-70
2022/09/11 07:10:53;;;;;;;3.38;1.55;;;;;;;;;;5032515;28;20060;-69
2022/09/11 07:13:24;;;;;;;1.38;1.02;;;;;;;;;;5049589;28;20064;-70
2022/09/11 07:16:06;;;;;;;2.47;1.05;;;;;;;;;;5048756;28;20052;-69
2022/09/11 07:18:41;;;;;;;2.65;1.25;;;;;;;;;;5047806;28;20419;-69
2022/09/11 07:21:22;;;;;;;1.52;1.10;;;;;;;;;;5047833;28;20068;-70
2022/09/11 07:23:58;;;;;;;2.05;0.93;;;;;;;;;;5046943;28;20159;-69
2022/09/11 07:26:35;;;;;;;1.15;0.75;;;;;;;;;;5047611;28;20053;-69
2022/09/11 07:31:33;;;;;;;2.67;1.27;;;;;;;;;;5169120;27;20190;-69
2022/09/11 07:34:06;;;;;;;1.77;0.80;;;;;;;;;;5128741;27;20042;-69
2022/09/11 07:36:36;;;;;;;2.95;1.27;;;;;;;;;;5128675;27;20054;-70
2022/09/11 07:39:08;;;;;;;2.50;1.10;;;;;;;;;;5129298;27;20039;-69
2022/09/11 07:44:10;;;;;;;1.30;0.80;;;;;;;;;;5169061;27;20430;-70
2022/09/11 07:46:41;;;;;;;2.85;0.93;;;;;;;;;;5129452;27;20050;-68
2022/09/11 07:49:13;;;;;;;2.25;0.80;;;;;;;;;;5129116;27;20050;-69
2022/09/11 07:51:43;;;;;;;2.83;1.13;;;;;;;;;;5129278;27;20047;-68
2022/09/11 07:54:17;;;;;;;0.90;0.70;;;;;;;;;;5129133;27;20043;-68
2022/09/11 07:56:48;;;;;;;5.45;1.23;;;;;;;;;;5128558;27;20381;-69
2022/09/11 07:59:18;;;;;;;;;;;;;;;;;;5128814;27;20043;-69
2022/09/11 08:29:33;;;;;;;1.55;1.08;;;;;;;;;;5066726;28;20431;-69
2022/09/11 08:32:05;;;;;;;2.00;1.60;;;;;;;;;;5065768;28;20053;-69
2022/09/11 08:36:55;;;;;;;3.65;2.35;;;;;;;;;;5066345;28;20410;-70
2022/09/11 08:39:28;;;;;;;3.85;2.05;;;;;;;;;;5065674;28;20055;-70
2022/09/11 08:51:24;;;;;;;4.65;2.28;;;;;;;;;;5065290;28;20916;-70
2022/09/11 08:53:55;;;;;;;5.75;1.63;;;;;;;;;;5066907;28;20526;-70
2022/09/11 08:56:29;;;;;;;3.50;1.52;;;;;;;;;;5065148;28;20052;-69
2022/09/11 09:13:20;;;;;;;1.63;1.05;;;;;;;;;;5169036;27;20427;-70
2022/09/11 09:41:32;;;;;;;1.45;1.20;;;;;;;;;;5066805;28;20427;-69
2022/09/11 10:05:24;;;;;;;26.98;2.58;;;;;;;;;;5107718;27;20478;-69
2022/09/11 10:08:35;;;;;;;7.78;1.85;;;;;;;;;;5102897;28;20059;-67
2022/09/11 10:11:09;;;;;;;23.98;1.95;;;;;;;;;;5086877;28;20056;-69
2022/09/11 10:16:18;;;;;;;4.07;1.95;;;;;;;;;;5086809;28;20418;-70
2022/09/11 10:18:48;;;;;;;8.32;1.73;;;;;;;;;;5086795;28;20048;-69
2022/09/11 10:21:32;;;;;;;3.25;2.05;;;;;;;;;;5087147;28;20048;-69
2022/09/11 10:24:22;;;;;;;2.88;1.95;;;;;;;;;;5086850;28;20506;-70
2022/09/11 10:26:54;;;;;;;4.50;2.25;;;;;;;;;;5085313;28;20411;-70
2022/09/11 10:29:29;;;;;;;4.10;2.08;;;;;;;;;;5086550;28;20056;-70
2022/09/11 10:32:04;;;;;;;3.83;2.30;;;;;;;;;;5086537;28;20036;-69
2022/09/11 10:34:37;;;;;;;3.65;1.95;;;;;;;;;;5086360;28;20434;-68
2022/09/11 10:37:25;;;;;;;4.45;2.63;;;;;;;;;;5086837;28;20503;-68
2022/09/11 10:40:17;;;;;;;3.28;1.60;;;;;;;;;;5086054;28;20048;-70
2022/09/11 10:42:49;;;;;;;2.65;1.40;;;;;;;;;;5086472;28;20044;-70
2022/09/11 10:45:21;;;;;;;2.60;1.60;;;;;;;;;;5086461;28;20050;-70
2022/09/11 10:47:52;;;;;;;2.55;1.40;;;;;;;;;;5084708;28;20522;-69
2022/09/11 10:50:23;;;;;;;;;;;;;;;;;;5086653;28;20075;-70
2022/09/11 10:53:19;;;;;;;1.50;0.93;;;;;;;;;;5086086;28;19924;-70
2022/09/11 10:56:04;;;;;;;3.13;1.42;;;;;;;;;;5086152;28;20048;-70
2022/09/11 10:58:39;;;;;;;2.90;1.60;;;;;;;;;;5086041;28;20544;-70
2022/09/11 11:01:10;;;;;;;2.38;1.20;;;;;;;;;;5086127;28;20041;-70
2022/09/11 11:03:40;;;;;;;4.35;1.80;;;;;;;;;;5085813;28;20055;-70
2022/09/11 11:06:19;;;;;;;3.85;1.50;;;;;;;;;;5086325;28;20044;-70
2022/09/11 11:08:57;;;;;;;4.03;1.20;;;;;;;;;;5084082;28;20063;-69
2022/09/11 11:11:51;;;;;;;2.33;1.35;;;;;;;;;;5085915;28;20041;-69
2022/09/11 11:14:28;;;;;;;3.65;1.20;;;;;;;;;;5085930;28;20059;-71
2022/09/11 11:17:17;;;;;;;5.88;1.75;;;;;;;;;;5085681;28;20565;-71
2022/09/11 11:20:13;;;;;;;3.53;1.35;;;;;;;;;;5085632;28;20047;-70
2022/09/11 11:23:04;;;;;;;2.72;1.30;;;;;;;;;;5085498;28;20471;-70
2022/09/11 11:25:56;;;;;;;3.03;1.67;;;;;;;;;;5082019;28;20502;-71
2022/09/11 11:28:44;;;;;;;3.22;1.20;;;;;;;;;;5071899;28;20048;-70
2022/09/11 11:31:30;;;;;;;4.38;1.77;;;;;;;;;;5072068;28;20048;-70
2022/09/11 11:34:26;;;;;;;3.28;1.33;;;;;;;;;;5072305;28;20048;-69
2022/09/11 11:37:04;;;;;;;1.70;1.20;;;;;;;;;;5071766;28;20059;-72
2022/09/11 11:39:52;;;;;;;4.05;1.65;;;;;;;;;;5071776;28;20044;-70
2022/09/11 11:42:58;;;;;;;3.13;1.58;;;;;;;;;;5071802;28;20040;-71
2022/09/11 11:45:43;;;;;;;5.95;2.22;;;;;;;;;;5054192;28;20475;-71
2022/09/11 11:48:44;;;;;;;6.30;1.75;;;;;;;;;;5071774;28;20059;-72
2022/09/11 11:51:23;;;;;;;3.28;1.65;;;;;;;;;;5071986;28;20056;-71
2022/09/11 11:54:19;;;;;;;5.00;1.67;;;;;;;;;;5071518;28;20411;-71
2022/09/11 11:57:01;;;;;;;5.65;1.60;;;;;;;;;;5064777;28;20056;-71
2022/09/11 11:59:45;;;;;;;3.00;1.40;;;;;;;;;;5071775;28;20044;-71
2022/09/11 12:02:28;;;;;;;2.72;1.52;;;;;;;;;;5071660;28;20048;-72
2022/09/11 12:05:05;;;;;;;3.15;1.80;;;;;;;;;;5070198;28;20052;-71
2022/09/11 12:07:38;;;;;;;5.10;1.35;;;;;;;;;;5071348;28;20107;-70
2022/09/11 12:10:20;;;;;;;1.90;1.38;;;;;;;;;;5071293;28;20041;-71
2022/09/11 12:12:55;;;;;;;4.43;1.30;;;;;;;;;;5071354;28;20048;-77
2022/09/11 12:15:30;;;;;;;4.30;1.63;;;;;;;;;;5070868;28;20048;-71
2022/09/11 12:18:06;;;;;;;2.35;1.15;;;;;;;;;;5071212;28;20052;-72
2022/09/11 12:20:45;;;;;;;4.10;1.20;;;;;;;;;;5071214;28;20514;-71
2022/09/11 12:23:31;;;;;;;2.83;1.10;;;;;;;;;;5070784;28;20040;-70
2022/09/11 12:26:10;;;;;;;3.95;1.10;;;;;;;;;;5068943;28;20053;-72
2022/09/11 12:28:41;;;;;;;3.53;1.08;;;;;;;;;;5070757;28;20044;-72
2022/09/11 12:31:16;;;;;;;3.38;1.40;;;;;;;;;;5071210;28;20495;-72
2022/09/11 12:33:53;;;;;;;5.10;1.50;;;;;;;;;;5070845;28;20763;-71
2022/09/11 12:37:01;;;;;;;3.55;1.20;;;;;;;;;;5069950;28;20056;-74
2022/09/11 12:39:38;;;;;;;3.88;1.70;;;;;;;;;;5007849;28;20058;-71
2022/09/11 12:42:24;;;;;;;5.60;1.63;;;;;;;;;;5065491;28;20075;-71
2022/09/11 12:44:54;;;;;;;4.05;1.27;;;;;;;;;;5070131;28;20044;-71
2022/09/11 12:47:37;;;;;;;3.35;1.70;;;;;;;;;;5070246;28;20044;-71
2022/09/11 12:50:10;;;;;;;4.97;2.30;;;;;;;;;;5069275;28;20080;-77
2022/09/11 12:52:53;;;;;;;12.32;4.82;;;;;;;;;;5070588;28;20044;-71
2022/09/11 12:55:38;;;;;;;4.35;2.00;;;;;;;;;;5069801;28;20368;-72
2022/09/11 12:58:20;;;;;;;4.35;1.30;;;;;;;;;;5070445;28;20510;-71
2022/09/11 13:01:08;;;;;;;;;;;;;;;;;;5071209;28;20044;-72
2022/09/11 13:03:48;;;;;;;5.93;1.30;;;;;;;;;;5069978;28;19927;-72
2022/09/11 13:06:20;;;;;;;3.35;1.33;;;;;;;;;;5070390;28;20048;-72
2022/09/11 13:09:00;;;;;;;5.03;1.42;;;;;;;;;;5069969;28;20511;-72
2022/09/11 13:11:44;;;;;;;4.28;0.88;;;;;;;;;;5069928;28;20495;-72
2022/09/11 13:14:28;;;;;;;4.00;2.33;;;;;;;;;;5068003;28;20074;-72
2022/09/11 13:17:00;;;;;;;2.90;1.20;;;;;;;;;;5070026;28;20048;-73
2022/09/11 13:19:35;;;;;;;2.90;1.60;;;;;;;;;;5070261;28;20044;-73
2022/09/11 13:22:20;;;;;;;1.85;1.25;;;;;;;;;;5069864;28;20071;-73
2022/09/11 13:25:03;;;;;;;2.05;1.15;;;;;;;;;;5066533;28;20048;-72
2022/09/11 13:27:38;;;;;;;3.30;1.25;;;;;;;;;;5069286;28;20040;-72
2022/09/11 13:30:11;;;;;;;2.03;0.70;;;;;;;;;;5069267;28;20502;-73
2022/09/11 13:32:43;;;;;;;1.90;1.30;;;;;;;;;;5069976;28;20048;-72
2022/09/11 13:35:26;;;;;;;5.28;1.30;;;;;;;;;;5068317;28;20036;-73
2022/09/11 13:38:08;;;;;;;1.25;0.98;;;;;;;;;;5069832;28;20491;-71
2022/09/11 13:41:06;;;;;;;2.67;0.90;;;;;;;;;;5069569;28;20052;-72
2022/09/11 13:44:10;;;;;;;4.13;1.58;;;;;;;;;;5069594;28;20048;-72
2022/09/11 13:46:51;;;;;;;2.83;1.10;;;;;;;;;;5060101;28;20511;-73
2022/09/11 13:49:35;;;;;;;3.85;1.02;;;;;;;;;;5069370;28;20055;-72
2022/09/11 13:52:06;;;;;;;2.67;1.25;;;;;;;;;;5069605;28;20095;-71
2022/09/11 13:54:41;;;;;;;5.70;1.30;;;;;;;;;;5069445;28;20048;-72
2022/09/11 13:57:16;;;;;;;2.53;0.90;;;;;;;;;;5068094;28;20601;-74
2022/09/11 13:59:53;;;;;;;2.42;1.15;;;;;;;;;;5069378;28;20052;-71
2022/09/11 14:02:29;;;;;;;3.35;1.33;;;;;;;;;;5069592;28;20357;-75
2022/09/11 14:05:20;;;;;;;5.03;1.48;;;;;;;;;;5068888;28;20048;-71
2022/09/11 14:08:00;;;;;;;7.95;1.40;;;;;;;;;;5068830;28;20499;-71
2022/09/11 14:10:42;;;;;;;4.47;1.67;;;;;;;;;;5069023;28;20075;-72
2022/09/11 14:13:19;;;;;;;4.45;1.38;;;;;;;;;;5068469;28;20052;-72
2022/09/11 14:15:55;;;;;;;7.18;1.60;;;;;;;;;;5068702;28;20438;-72
2022/09/11 14:18:24;;;;;;;;;;;;;;;;;;5069413;28;20052;-74
2022/09/11 14:20:58;;;;;;;5.20;1.60;;;;;;;;;;5069121;28;19920;-71
2022/09/11 14:23:29;;;;;;;3.05;1.13;;;;;;;;;;5068282;28;20545;-74
2022/09/11 14:26:08;;;;;;;3.33;1.00;;;;;;;;;;5069340;28;20408;-72
2022/09/11 14:28:55;;;;;;;3.10;1.75;;;;;;;;;;5069217;28;20052;-72
2022/09/11 14:31:50;;;;;;;1.70;1.17;;;;;;;;;;5069788;28;20056;-72
2022/09/11 14:34:28;;;;;;;2.63;1.30;;;;;;;;;;5068909;28;20503;-71
2022/09/11 14:37:16;;;;;;;3.67;1.30;;;;;;;;;;5069055;28;20053;-72
2022/09/11 14:39:56;;;;;;;3.08;1.30;;;;;;;;;;5068157;28;20063;-73
2022/09/11 14:42:30;;;;;;;3.88;1.30;;;;;;;;;;5068850;28;20064;-72
2022/09/11 14:45:17;;;;;;;1.88;1.13;;;;;;;;;;5067792;28;20044;-73
2022/09/11 14:47:52;;;;;;;5.13;1.30;;;;;;;;;;5068307;28;20052;-72
2022/09/11 14:50:23;;;;;;;2.38;1.40;;;;;;;;;;5068421;28;20040;-72
2022/09/11 14:52:55;;;;;;;3.63;1.02;;;;;;;;;;5068325;28;20052;-72
2022/09/11 14:55:28;;;;;;;3.58;1.50;;;;;;;;;;5068734;28;20052;-75
2022/09/11 14:58:02;;;;;;;8.15;2.00;;;;;;;;;;5068175;28;20423;-72
2022/09/11 15:00:37;;;;;;;4.53;1.02;;;;;;;;;;5067759;28;20044;-72
2022/09/11 15:03:07;;;;;;;2.20;1.10;;;;;;;;;;5071916;28;20064;-72
2022/09/11 15:05:38;;;;;;;5.15;1.60;;;;;;;;;;5070987;28;20052;-73
2022/09/11 15:08:09;;;;;;;4.32;0.93;;;;;;;;;;5072154;28;20079;-72
2022/09/11 15:10:40;;;;;;;3.38;1.20;;;;;;;;;;5072697;28;20040;-72
2022/09/11 15:13:10;;;;;;;3.80;1.40;;;;;;;;;;5072204;28;20053;-75
2022/09/11 15:15:39;;;;;;;5.10;0.80;;;;;;;;;;5070281;28;20045;-72
2022/09/11 15:18:10;;;;;;;4.45;1.20;;;;;;;;;;5072086;28;20487;-72
2022/09/11 15:20:40;;;;;;;2.35;0.98;;;;;;;;;;5072368;28;20491;-72
2022/09/11 15:23:09;;;;;;;4.10;1.25;;;;;;;;;;5071944;28;20052;-72
2022/09/11 15:25:39;;;;;;;1.55;1.30;;;;;;;;;;5071918;28;20558;-72
2022/09/11 15:28:09;;;;;;;4.00;1.52;;;;;;;;;;5072009;28;20056;-72
2022/09/11 15:30:42;;;;;;;4.60;2.55;;;;;;;;;;5072402;28;20044;-71
2022/09/11 15:33:12;;;;;;;3.25;1.40;;;;;;;;;;5072248;28;20063;-71
2022/09/11 15:35:42;;;;;;;4.13;1.50;;;;;;;;;;5071761;28;20364;-74
2022/09/11 15:38:12;;;;;;;3.67;1.05;;;;;;;;;;5071494;28;20045;-72
2022/09/11 15:40:42;;;;;;;2.50;0.90;;;;;;;;;;5071871;28;20051;-71
2022/09/11 15:43:15;;;;;;;2.85;1.20;;;;;;;;;;5072311;28;20071;-74
2022/09/11 15:45:45;;;;;;;4.45;0.90;;;;;;;;;;5070856;28;20504;-75
2022/09/11 15:48:20;;;;;;;3.10;1.40;;;;;;;;;;5071442;28;20044;-71
2022/09/11 15:51:01;;;;;;;4.00;1.10;;;;;;;;;;5072143;28;20045;-71
2022/09/11 15:53:33;;;;;;;3.30;1.02;;;;;;;;;;5071560;28;20039;-72
2022/09/11 15:56:08;;;;;;;3.78;0.90;;;;;;;;;;5069898;28;20052;-72
2022/09/11 15:58:43;;;;;;;3.70;1.48;;;;;;;;;;5072020;28;20548;-71
2022/09/11 16:01:19;;;;;;;5.00;1.83;;;;;;;;;;5075323;28;20051;-72
2022/09/11 16:04:00;;;;;;;4.95;1.20;;;;;;;;;;5070026;28;20049;-72
2022/09/11 16:06:32;;;;;;;4.07;1.77;;;;;;;;;;5070834;28;20522;-72
2022/09/11 16:09:07;;;;;;;4.43;1.30;;;;;;;;;;5069401;28;20537;-71
2022/09/11 16:11:39;;;;;;;4.72;1.30;;;;;;;;;;5071823;28;20048;-72
2022/09/11 16:14:23;;;;;;;2.17;1.00;;;;;;;;;;5071363;28;20044;-71
2022/09/11 16:16:55;;;;;;;4.05;1.15;;;;;;;;;;5071613;28;20052;-73
2022/09/11 16:19:27;;;;;;;4.70;1.30;;;;;;;;;;5070763;28;20048;-71
2022/09/11 16:21:59;;;;;;;3.08;1.55;;;;;;;;;;5071166;28;20056;-71
2022/09/11 16:24:36;;;;;;;7.50;1.35;;;;;;;;;;5071192;28;20507;-71
2022/09/11 16:27:08;;;;;;;4.00;1.25;;;;;;;;;;5070474;28;20052;-71
2022/09/11 16:29:38;;;;;;;4.10;1.40;;;;;;;;;;5071211;28;20033;-71
2022/09/11 16:32:30;;;;;;;7.47;1.95;;;;;;;;;;5070740;28;20056;-71
2022/09/11 16:35:00;;;;;;;4.97;1.10;;;;;;;;;;5070790;28;20060;-71
2022/09/11 16:37:32;;;;;;;3.20;1.20;;;;;;;;;;5071125;28;20491;-71
2022/09/11 16:40:03;;;;;;;3.40;1.38;;;;;;;;;;5071007;28;20087;-72
2022/09/11 16:42:35;;;;;;;2.50;1.15;;;;;;;;;;5070778;28;20050;-70
2022/09/11 16:45:06;;;;;;;3.53;1.40;;;;;;;;;;5070597;28;20045;-71
2022/09/11 16:47:36;;;;;;;3.75;1.48;;;;;;;;;;5070307;28;20059;-71
2022/09/11 16:50:06;;;;;;;5.13;1.30;;;;;;;;;;5070856;28;20045;-71
2022/09/11 16:52:38;;;;;;;5.95;1.65;;;;;;;;;;5070063;28;20064;-71
2022/09/11 16:55:10;;;;;;;3.35;1.20;;;;;;;;;;5070315;28;20111;-71
2022/09/11 16:57:40;;;;;;;4.15;0.95;;;;;;;;;;5070450;28;20051;-71
2022/09/11 17:00:11;;;;;;;9.50;1.45;;;;;;;;;;5069887;28;20040;-72
2022/09/11 17:02:41;;;;;;;8.13;1.33;;;;;;;;;;5070337;28;20052;-72
2022/09/11 17:05:11;;;;;;;3.15;1.13;;;;;;;;;;5069213;28;20057;-70
2022/09/11 17:07:41;;;;;;;7.00;1.52;;;;;;;;;;5070182;28;20048;-71
2022/09/11 17:10:11;;;;;;;6.40;1.35;;;;;;;;;;5070158;28;20075;-71
2022/09/11 17:12:40;;;;;;;6.43;1.25;;;;;;;;;;5070228;28;20056;-72
2022/09/11 17:15:10;;;;;;;2.90;1.30;;;;;;;;;;5070147;28;20052;-71
2022/09/11 17:17:42;;;;;;;4.90;1.15;;;;;;;;;;5070240;28;20052;-73
2022/09/11 17:20:13;;;;;;;3.60;0.93;;;;;;;;;;5069752;28;20518;-71
2022/09/11 17:22:44;;;;;;;3.65;1.17;;;;;;;;;;5069954;28;20049;-71
2022/09/11 17:25:14;;;;;;;3.40;1.30;;;;;;;;;;5069087;28;20048;-71